METAR Data
IDs: Format: Raw Decoded Include TAF

Data at: 0926 UTC 18 Jan 2019

PASA 180856Z AUTO 24010KT 9SM -SN FEW012 OVC029 M11/M12 A3002 RMK AO2 SNB26 SLP169 P0000 60000 T11061122 410611133 53020 FZRANO $
PASA 180756Z AUTO 25009KT 10SM OVC035 M11/M13 A3000 RMK AO2 SLP161 T11111128 FZRANO $
PASA 180656Z AUTO 25009KT 10SM SCT039 M12/M14 A2998 RMK AO2 SLP154 T11221139 FZRANO $
PASA 180556Z AUTO 25009KT 10SM SCT043 M13/M15 A2997 RMK AO2 SLP149 T11281150 11106 21128 51023 FZRANO $
PASA 180456Z AUTO 24011KT 10SM OVC070 M12/M13 A2995 RMK AO2 SLP143 T11171133 FZRANO $
PASA 180356Z AUTO 24016KT 10SM OVC070 M11/M13 A2992 RMK AO2 SLP134 T11061128 FZRANO $
PASA 180256Z AUTO 25013KT 10SM BKN070 M12/M13 A2990 RMK AO2 SLP126 T11221133 53023 FZRANO $
PASA 180056Z AUTO 24015KT 10SM CLR M11/M13 A2985 RMK AO2 SLP109 T11111128 FZRANO $
PASA 172356Z AUTO 24015KT 10SM CLR M11/M13 A2983 RMK AO2 SLP103 60000 T11061128 11083 21111 51021 FZRANO $
PASA 172256Z AUTO 25014KT 10SM CLR M11/M12 A2981 RMK AO2 SLP095 T11061122 FZRANO $
PASA 172156Z AUTO 24012KT 10SM OVC009 M10/M12 A2979 RMK AO2 SNB2059E25 SLP090 P0000 T11001117 FZRANO $
PASA 172056Z AUTO 25018KT 9SM OVC009 M09/M10 A2977 RMK AO2 SNE05B44E54 SLP082 P0000 60000 T10891100 51022 FZRANO $
PASA 172044Z AUTO 26013KT 10SM -SN OVC009 M09/M10 A2977 RMK AO2 SNE05B44 P0000 FZRANO $
PASA 172007Z AUTO 26012KT 9SM BKN011 BKN035 M09/M10 A2975 RMK AO2 SNE05 P0000 FZRANO $
PASA 171956Z AUTO 26012KT 9SM -SN SCT011 BKN035 BKN050 M09/M11 A2975 RMK AO2 SLP076 P0000 T10941106 FZRANO $
PASA 171935Z AUTO 26015KT 8SM -SN SCT025 BKN050 M09/M10 A2974 RMK AO2 P0000 FZRANO $
PASA 171856Z AUTO 27012KT 2 1/2SM -SN BR OVC018 M09/M10 A2973 RMK AO2 SLP069 P0000 T10891100 FZRANO $
PASA 171836Z AUTO 27013KT 2SM -SN BR OVC016 M09/M09 A2972 RMK AO2 P0000 FZRANO $
PASA 171818Z AUTO 26013KT 1 1/2SM -SN BR FEW007 OVC014 M08/M09 A2971 RMK AO2 P0000 FZRANO $
PASA 171811Z AUTO 27014KT 1 1/2SM -SN BR SCT010 OVC014 M08/M09 A2971 RMK AO2 P0000 FZRANO $
PASA 171756Z AUTO 26013KT 1 1/4SM -SN BR BKN009 OVC015 M08/M09 A2970 RMK AO2 CIG 007V013 SLP060 P0000 60000 T10831094 11061 21083 53013 FZRANO $
PASA 171741Z AUTO 26014KT 1 1/2SM -SN BR OVC009 M08/M09 A2970 RMK AO2 CIG 006V012 P0000 FZRANO $
PASA 171734Z AUTO 27014KT 2SM -SN BR BKN009 OVC015 M08/M09 A2970 RMK AO2 CIG 006V012 P0000 FZRANO $
PASA 171707Z AUTO 26016KT 8SM -SN BKN009 OVC019 M08/M09 A2969 RMK AO2 P0000 FZRANO $
PASA 171656Z AUTO 26016KT 9SM -SN SCT009 OVC019 M08/M09 A2968 RMK AO2 SLP054 P0000 T10781089 FZRANO $
PASA 171629Z AUTO 26015KT 9SM -SN SCT009 BKN019 OVC032 M08/M09 A2968 RMK AO2 P0000 FZRANO $
PASA 171556Z AUTO 26014KT 7SM -SN BKN007 BKN012 OVC017 M07/M08 A2967 RMK AO2 SLP050 P0000 T10721083 FZRANO $
PASA 171537Z AUTO 26013KT 8SM -SN BKN007 BKN012 OVC017 M07/M08 A2967 RMK AO2 CIG 006V010 P0000 FZRANO $
PASA 171504Z AUTO 26013KT 3SM -SN BR OVC005 M07/M07 A2967 RMK AO2 P0000 FZRANO $
PASA 171456Z AUTO 26013KT 4SM -SN BR OVC007 M07/M07 A2967 RMK AO2 SLP048 P0000 60000 T10671072 53003 FZRANO $
PASA 171439Z AUTO 26014KT 8SM -SN OVC007 M06/M07 A2966 RMK AO2 CIG 004V009 P0000 FZRANO $
PASA 171356Z AUTO 24014KT 3SM -SN BR OVC005 M07/M07 A2966 RMK AO2 SNB10 SLP046 P0000 T10671072 FZRANO $
PASA 171320Z AUTO 24016KT 3SM -SN BR OVC005 M07/M08 A2965 RMK AO2 SNB10 P0000 FZRANO $
PASA 171312Z AUTO 24016KT 2 1/2SM -SN BR OVC005 M07/M08 A2965 RMK AO2 SNB10 P0000 FZRANO $
PASA 171256Z AUTO 23017KT 4SM BR OVC005 M07/M08 A2965 RMK AO2 SLP043 T10721078 FZRANO $
PASA 171244Z AUTO 24017KT 4SM BR OVC005 M07/M08 A2965 RMK AO2 FZRANO $
PASA 171156Z AUTO 25012KT 4SM BR OVC007 M07/M08 A2966 RMK AO2 SNE40 SLP045 P0000 60000 T10721083 11061 21078 58000 FZRANO $
PASA 171112Z AUTO 25014KT 2SM -SN BR OVC007 M07/M08 A2966 RMK AO2 P0000 FZRANO $
PASA 171105Z AUTO 25014KT 1 3/4SM -SN BR OVC007 M07/M08 A2966 RMK AO2 P0000 FZRANO $
PASA 171021Z AUTO 24014KT 2 1/2SM BR OVC007 M07/M08 A2966 RMK AO2 FZRANO $
PASA 170956Z AUTO 24013KT 4SM BR OVC005 M07/M08 A2967 RMK AO2 SLP048 T10721083 FZRANO $
PASA 170756Z AUTO 24015KT 4SM BR OVC005 M07/M08 A2966 RMK AO2 SLP047 T10671078 FZRANO $
PASA 170656Z AUTO 24012KT 3SM BR OVC005 M06/M07 A2966 RMK AO2 SLP046 T10611072 FZRANO $
PASA 170556Z AUTO 25012KT 3SM BR OVC005 M06/M07 A2966 RMK AO2 SNE35 SLP046 P0000 60000 T10611067 11028 21061 56002 FZRANO $
PASA 170551Z AUTO 25013KT 3SM BR OVC005 M06/M07 A2966 RMK AO2 SNE35 P0000 FZRANO $
PASA 170528Z AUTO 2 1/2SM -SN BR OVC005 M06/M07 A2966 RMK AO2 P0000 FZRANO $
PASA 170456Z AUTO 24014KT 1 1/4SM -SN BR OVC005 M06/M06 A2966 RMK AO2 SLP046 P0000 T10561061 FZRANO $
PASA 170322Z AUTO 26011KT 1 1/2SM -SN BR OVC007 M04/M06 A2966 RMK AO2 CIG 005V010 P0000 FZRANO $
PASA 170314Z AUTO 25012KT 1SM -SN BR OVC007 M04/M06 A2966 RMK AO2 CIG 005V010 P0000 FZRANO $
PASA 170303Z AUTO 25011KT 1 3/4SM -SN BR OVC007 M04/M05 A2967 RMK AO2 CIG 005V009 P0000 FZRANO $
PASA 170249Z AUTO 25009KT 4SM -SN BR OVC007 M04/M05 A2967 RMK AO2 CIG 005V010 P0000 FZRANO $
PASA 170240Z AUTO 25010KT 2 1/2SM -SN BR OVC009 M04/M05 A2967 RMK AO2 CIG 005V010 P0000 FZRANO $
PASA 170228Z AUTO 26013KT 1 1/4SM -SN BR BKN009 OVC014 M04/M05 A2966 RMK AO2 CIG 004V010 P0000 FZRANO $
PASA 170224Z AUTO 26013KT 1SM -SN BR BKN005 BKN009 OVC014 M04/M05 A2966 RMK AO2 CIG 004V008 P0000 FZRANO $
PASA 170213Z AUTO 26012KT 3/4SM -SN BR SCT005 BKN009 OVC014 M04/M05 A2966 RMK AO2 CIG 007V010 P0000 FZRANO $
PASA 170153Z AUTO 24010KT 3/4SM -SN BR BKN005 OVC009 M04/M04 A2966 RMK AO2 SLP047 P0000 T10391044 FZRANO $
PASA 170152Z AUTO 24009KT 3/4SM -SN BR BKN005 OVC009 M04/M04 A2966 RMK AO2 P0000 FZRANO $
PASA 170133Z AUTO 24010KT 1 1/2SM -SN BR BKN005 BKN009 OVC013 M04/M04 A2966 RMK AO2 P0000 FZRANO $
PASA 170113Z AUTO 25010KT 1SM -SN BR SCT009 OVC013 M03/M04 A2966 RMK AO2 P0000 FZRANO $
PASA 170056Z AUTO 25011KT 3/4SM -SN BR SCT006 OVC013 M03/M04 A2966 RMK AO2 SNB01 SLP047 P0000 T10281039 FZRANO $
PASA 170053Z AUTO 26008KT 1SM -SN BR SCT006 OVC013 M03/M04 A2967 RMK AO2 SNB01 P0000 FZRANO $
PASA 170041Z AUTO 26008KT 1SM -SN BR BKN006 OVC010 M03/M04 A2966 RMK AO2 SNB01 CIG 005V008 P0000 FZRANO $
PASA 170032Z AUTO 26008KT 2 1/2SM -SN BR OVC006 M03/M04 A2966 RMK AO2 SNB01 CIG 004V009 P0000 FZRANO $
PASA 162356Z AUTO 26006KT 9SM OVC004 M03/M04 A2966 RMK AO2 SNE53 SLP047 P0000 60000 T10331039 11017 21039 58006 FZRANO $
PASA 162256Z AUTO 23008KT 3SM -SN BR BKN004 OVC029 M03/M04 A2967 RMK AO2 SNE2157B25 SLP049 P0000 T10281039 FZRANO $
PASA 162251Z AUTO 23006KT 2 1/2SM -SN BR BKN004 OVC029 M03/M04 A2967 RMK AO2 SNE2157B25 P0000 FZRANO $
PASA 162240Z AUTO 22007KT 4SM -SN BR SCT004 BKN029 OVC047 M03/M04 A2967 RMK AO2 SNE2157B25 P0000 FZRANO $
PASA 162233Z AUTO 22007KT 4SM -SN BR FEW007 BKN031 OVC047 M03/M04 A2968 RMK AO2 SNE2157B25 P0000 FZRANO $